createdAt,value
2023-04-19T00:00:52.747Z,28.54
2023-04-19T00:01:52.747Z,28.76
2023-04-19T00:02:52.886Z,28.95
2023-04-19T00:03:53.027Z,29.12
2023-04-19T00:04:52.970Z,28.07
2023-04-19T00:05:52.722Z,30.91
2023-04-19T00:06:52.699Z,28.69
2023-04-19T00:07:52.698Z,29.12
2023-04-19T00:08:52.694Z,29.60
2023-04-19T00:09:52.696Z,31.82
2023-04-19T00:10:52.704Z,31.57
2023-04-19T00:11:52.695Z,30.81
2023-04-19T00:12:52.667Z,31.78
2023-04-19T00:13:52.690Z,28.01
2023-04-19T00:14:52.686Z,28.71
2023-04-19T00:15:52.683Z,29.13
2023-04-19T00:16:52.718Z,30.32
2023-04-19T00:17:52.664Z,31.87
2023-04-19T00:18:52.692Z,28.20
2023-04-19T00:19:52.703Z,33.08
2023-04-19T00:20:52.740Z,31.15
2023-04-19T00:21:52.785Z,28.28
2023-04-19T00:22:52.833Z,26.58
2023-04-19T00:23:52.861Z,29.23
2023-04-19T00:24:52.914Z,28.12
2023-04-19T00:25:52.959Z,30.54
2023-04-19T00:26:53.004Z,26.71
2023-04-19T00:27:53.027Z,29.11
2023-04-19T00:28:53.091Z,29.15
2023-04-19T00:29:53.132Z,27.98
2023-04-19T00:30:53.230Z,31.41
2023-04-19T00:31:53.236Z,26.02
2023-04-19T00:32:53.301Z,28.35
2023-04-19T00:33:53.303Z,26.69
2023-04-19T00:34:53.332Z,26.17
2023-04-19T00:35:53.363Z,29.14
2023-04-19T00:36:53.397Z,28.33
2023-04-19T00:37:53.450Z,28.44
2023-04-19T00:38:53.489Z,31.12
2023-04-19T00:39:53.524Z,27.12
2023-04-19T00:40:53.555Z,27.47
2023-04-19T00:41:53.605Z,27.62
2023-04-19T00:42:53.672Z,26.49
2023-04-19T00:43:53.693Z,28.95
2023-04-19T00:44:53.750Z,27.93
2023-04-19T00:45:53.850Z,27.36
2023-04-19T00:46:53.802Z,29.00
2023-04-19T00:47:53.900Z,29.02
2023-04-19T00:48:53.887Z,30.41
2023-04-19T00:49:53.939Z,29.94
2023-04-19T00:50:53.976Z,30.90
2023-04-19T00:51:54.026Z,30.93
2023-04-19T00:52:54.067Z,29.54
2023-04-19T00:53:54.103Z,30.47
2023-04-19T00:54:54.157Z,27.66
2023-04-19T00:55:54.135Z,27.85
2023-04-19T00:56:54.132Z,28.24
2023-04-19T00:57:54.129Z,28.05
2023-04-19T00:58:54.126Z,27.81
2023-04-19T00:59:54.135Z,28.36
2023-04-19T01:00:54.100Z,28.51
2023-04-19T01:01:54.130Z,29.86
2023-04-19T01:02:54.262Z,31.14
2023-04-19T01:03:54.131Z,26.78
2023-04-19T01:04:54.091Z,29.04
2023-04-19T01:05:54.072Z,29.34
2023-04-19T01:06:54.066Z,32.06
2023-04-19T01:07:54.054Z,28.84
2023-04-19T01:08:54.109Z,27.44
2023-04-19T01:09:54.153Z,28.41
2023-04-19T01:10:54.194Z,27.80
2023-04-19T01:11:54.255Z,28.36
2023-04-19T01:12:54.288Z,29.33
2023-04-19T01:13:54.344Z,26.48
2023-04-19T01:14:54.392Z,28.19
2023-04-19T01:15:54.476Z,29.14
2023-04-19T01:16:54.506Z,31.72
2023-04-19T01:17:54.556Z,30.17
2023-04-19T01:18:54.587Z,31.20
2023-04-19T01:19:54.630Z,27.49
2023-04-19T01:20:54.673Z,28.27
2023-04-19T01:21:54.726Z,28.13
2023-04-19T01:22:54.777Z,27.65
2023-04-19T01:23:54.831Z,30.84
2023-04-19T01:24:54.873Z,27.71
2023-04-19T01:25:54.917Z,31.59
2023-04-19T01:26:54.968Z,28.02
2023-04-19T01:27:55.027Z,30.16
2023-04-19T01:28:55.059Z,29.96
2023-04-19T01:29:55.136Z,27.82
2023-04-19T01:30:55.248Z,30.41
2023-04-19T01:31:55.214Z,29.85
2023-04-19T01:32:55.300Z,27.97
2023-04-19T01:33:55.325Z,32.51
2023-04-19T01:34:55.379Z,26.81
2023-04-19T01:35:55.437Z,30.54
2023-04-19T01:36:55.498Z,28.89
2023-04-19T01:37:55.549Z,26.47
2023-04-19T01:38:55.518Z,26.72
2023-04-19T01:39:55.516Z,27.18
2023-04-19T01:40:55.496Z,28.01
2023-04-19T01:41:55.512Z,29.17
2023-04-19T01:42:55.489Z,28.12
2023-04-19T01:43:55.478Z,26.90
2023-04-19T01:44:55.471Z,28.91
2023-04-19T01:45:55.471Z,28.60
2023-04-19T01:46:55.496Z,29.66
2023-04-19T01:47:55.535Z,31.05
2023-04-19T01:48:55.575Z,28.52
2023-04-19T01:49:55.641Z,28.55
2023-04-19T01:50:55.690Z,29.66
2023-04-19T01:51:55.739Z,27.77
2023-04-19T01:52:55.782Z,29.61
2023-04-19T01:53:55.842Z,27.50
2023-04-19T01:54:55.887Z,25.00
2023-04-19T01:55:55.948Z,27.19
2023-04-19T01:56:56.001Z,28.86
2023-04-19T01:57:56.072Z,31.30
2023-04-19T01:58:56.106Z,28.66
2023-04-19T01:59:56.181Z,29.13
2023-04-19T02:00:56.279Z,27.36
2023-04-19T02:01:56.338Z,32.09
2023-04-19T02:02:56.410Z,29.23
2023-04-19T02:03:56.481Z,29.34
2023-04-19T02:04:56.458Z,29.84
2023-04-19T02:05:56.506Z,27.76
2023-04-19T02:06:56.562Z,31.28
2023-04-19T02:07:56.636Z,28.48
2023-04-19T02:08:56.667Z,30.49
2023-04-19T02:09:56.747Z,31.55
2023-04-19T02:10:56.791Z,29.65
2023-04-19T02:11:56.847Z,31.09
2023-04-19T02:12:56.915Z,30.36
2023-04-19T02:13:56.986Z,27.29
2023-04-19T02:14:57.037Z,27.40
2023-04-19T02:15:57.025Z,27.68
2023-04-19T02:16:57.054Z,28.38
2023-04-19T02:17:57.032Z,28.80
2023-04-19T02:18:56.984Z,30.35
2023-04-19T02:19:56.995Z,30.32
2023-04-19T02:20:56.994Z,32.48
2023-04-19T02:21:56.962Z,29.32
2023-04-19T02:22:56.937Z,29.13
2023-04-19T02:23:56.995Z,30.93
2023-04-19T02:24:56.996Z,31.07
2023-04-19T02:25:56.980Z,31.51
2023-04-19T02:26:56.973Z,31.86
2023-04-19T02:27:56.997Z,31.15
2023-04-19T02:28:56.946Z,31.95
2023-04-19T02:29:56.946Z,33.10
2023-04-19T02:30:56.939Z,30.92
2023-04-19T02:31:56.947Z,29.86
2023-04-19T02:32:57.006Z,28.13
2023-04-19T02:33:57.012Z,30.63
2023-04-19T02:34:57.073Z,31.12
2023-04-19T02:35:57.131Z,29.89
2023-04-19T02:36:57.118Z,30.12
2023-04-19T02:37:57.125Z,30.22
2023-04-19T02:38:57.102Z,30.18
2023-04-19T02:39:57.102Z,31.10
2023-04-19T02:40:57.095Z,30.51
2023-04-19T02:41:57.083Z,28.86
2023-04-19T02:42:57.075Z,31.99
2023-04-19T02:43:57.068Z,25.86
2023-04-19T02:44:57.059Z,32.68
2023-04-19T02:45:57.118Z,30.32
2023-04-19T02:46:57.163Z,30.92
2023-04-19T02:47:57.418Z,31.05
2023-04-19T02:48:57.210Z,31.18
2023-04-19T02:49:57.210Z,31.55
2023-04-19T02:50:57.186Z,29.36
2023-04-19T02:51:57.182Z,32.37
2023-04-19T02:52:57.168Z,32.69
2023-04-19T02:53:57.151Z,31.17
2023-04-19T02:54:57.155Z,31.54
2023-04-19T02:55:57.126Z,31.25
2023-04-19T02:56:57.121Z,31.79
2023-04-19T02:57:57.132Z,32.38
2023-04-19T02:58:57.098Z,30.11
2023-04-19T02:59:57.100Z,21.18
2023-04-19T03:00:57.139Z,24.21
2023-04-19T03:01:57.105Z,25.00
2023-04-19T03:02:57.222Z,26.10
2023-04-19T03:03:57.149Z,25.88
2023-04-19T03:04:57.069Z,25.96
2023-04-19T03:05:57.065Z,25.35
2023-04-19T03:06:57.064Z,25.45
2023-04-19T03:07:57.073Z,25.05
2023-04-19T03:08:57.069Z,25.00
2023-04-19T03:09:57.088Z,26.44
2023-04-19T03:10:57.120Z,25.00
2023-04-19T03:11:57.123Z,26.75
2023-04-19T03:12:57.166Z,24.11
2023-04-19T03:13:57.190Z,24.48
2023-04-19T03:14:57.251Z,25.00
2023-04-19T03:15:57.366Z,25.22
2023-04-19T03:16:57.285Z,20.07
2023-04-19T03:17:57.294Z,3.88
2023-04-19T03:18:57.268Z,0.00
2023-04-19T03:19:57.260Z,0.00
2023-04-19T03:20:57.266Z,0.00
2023-04-19T03:21:57.250Z,0.00
2023-04-19T03:22:57.242Z,17.81
2023-04-19T03:23:57.268Z,25.00
2023-04-19T03:24:57.245Z,25.00
2023-04-19T03:25:57.266Z,25.00
2023-04-19T03:26:57.343Z,25.55
2023-04-19T03:27:57.394Z,25.56
2023-04-19T03:28:57.440Z,25.00
2023-04-19T03:29:57.517Z,25.00
2023-04-19T03:30:57.571Z,25.00
2023-04-19T03:31:57.611Z,25.38
2023-04-19T03:32:57.684Z,25.00
2023-04-19T03:33:57.723Z,25.00
2023-04-19T03:34:57.830Z,25.00
2023-04-19T03:35:57.853Z,25.04
2023-04-19T03:36:57.886Z,25.00
2023-04-19T03:37:57.906Z,25.06
2023-04-19T03:38:57.953Z,25.00
2023-04-19T03:39:58.010Z,26.06
2023-04-19T03:40:58.038Z,25.00
2023-04-19T03:41:58.107Z,25.00
2023-04-19T03:42:58.167Z,26.12
2023-04-19T03:43:58.208Z,25.03
2023-04-19T03:44:58.220Z,25.00
2023-04-19T03:45:58.272Z,27.93
2023-04-19T03:46:58.259Z,25.99
2023-04-19T03:47:59.135Z,25.00
2023-04-19T03:48:58.248Z,25.00
2023-04-19T03:49:58.254Z,25.00
2023-04-19T03:50:58.253Z,28.00
2023-04-19T03:51:58.254Z,27.14
2023-04-19T03:52:58.256Z,25.54
2023-04-19T03:53:58.263Z,25.00
2023-04-19T03:54:58.270Z,27.87
2023-04-19T03:55:58.264Z,28.43
2023-04-19T03:56:58.273Z,30.94
2023-04-19T03:57:58.269Z,27.60
2023-04-19T03:58:58.277Z,25.00
2023-04-19T03:59:58.303Z,28.15
2023-04-19T04:00:58.298Z,25.62
2023-04-19T04:01:58.363Z,28.71
2023-04-19T04:02:58.604Z,29.74
2023-04-19T04:03:58.520Z,28.45
2023-04-19T04:04:58.437Z,28.55
2023-04-19T04:05:58.342Z,28.57
2023-04-19T04:06:58.341Z,28.60
2023-04-19T04:07:58.351Z,29.21
2023-04-19T04:08:58.345Z,30.60
2023-04-19T04:09:58.344Z,32.02
2023-04-19T04:10:58.351Z,32.36
2023-04-19T04:11:58.360Z,29.07
2023-04-19T04:12:58.353Z,30.49
2023-04-19T04:13:58.351Z,35.29
2023-04-19T04:14:58.353Z,34.33
2023-04-19T04:15:58.349Z,34.39
2023-04-19T04:16:58.363Z,36.75
2023-04-19T04:17:58.427Z,38.76
2023-04-19T04:18:58.363Z,29.67
2023-04-19T04:19:58.362Z,30.69
2023-04-19T04:20:58.374Z,36.20
2023-04-19T04:21:58.375Z,48.45
2023-04-19T04:22:58.364Z,55.58
2023-04-19T04:23:58.371Z,65.97
2023-04-19T04:24:58.371Z,76.32
2023-04-19T04:25:58.371Z,76.80
2023-04-19T04:26:58.376Z,80.12
2023-04-19T04:27:58.376Z,89.25
2023-04-19T04:28:58.385Z,102.89
2023-04-19T04:29:58.386Z,124.06
2023-04-19T04:30:58.371Z,78.48
2023-04-19T04:31:58.455Z,86.58
2023-04-19T04:32:58.430Z,103.20
2023-04-19T04:33:58.367Z,130.65
2023-04-19T04:34:58.502Z,167.73
2023-04-19T04:35:58.373Z,176.58
2023-04-19T04:36:58.370Z,175.88
2023-04-19T04:37:58.370Z,178.56
2023-04-19T04:38:58.374Z,180.37
2023-04-19T04:39:58.408Z,179.24
2023-04-19T04:40:58.459Z,180.05
2023-04-19T04:41:58.521Z,180.95
2023-04-19T04:42:58.554Z,182.04
2023-04-19T04:44:11.295Z,178.63
2023-04-19T04:44:59.616Z,178.72
2023-04-19T04:45:58.648Z,174.97
2023-04-19T04:46:58.600Z,173.78
2023-04-19T04:47:58.615Z,174.68
2023-04-19T04:48:58.603Z,175.59
2023-04-19T04:49:58.604Z,174.98
2023-04-19T04:50:58.622Z,165.92
2023-04-19T04:51:58.605Z,144.41
2023-04-19T04:52:58.594Z,132.95
2023-04-19T04:53:58.602Z,125.80
2023-04-19T04:54:58.603Z,115.72
2023-04-19T04:55:58.654Z,114.49
2023-04-19T04:56:58.786Z,108.93
2023-04-19T04:57:58.774Z,104.12
2023-04-19T04:58:58.787Z,104.24
2023-04-19T04:59:58.798Z,104.18
2023-04-19T05:00:58.835Z,98.65
2023-04-19T05:01:58.850Z,89.36
2023-04-19T05:02:58.894Z,86.37
2023-04-19T05:03:58.880Z,82.27
2023-04-19T05:04:58.808Z,79.56
2023-04-19T05:05:58.789Z,79.40
2023-04-19T05:06:58.893Z,76.44
2023-04-19T05:07:58.803Z,72.09
2023-04-19T05:08:58.807Z,68.44
2023-04-19T05:09:58.806Z,67.38
2023-04-19T05:10:58.821Z,64.71
2023-04-19T05:11:58.814Z,66.92
2023-04-19T05:12:58.815Z,65.41
2023-04-19T05:13:58.816Z,62.83
2023-04-19T05:14:58.814Z,65.69
2023-04-19T05:15:58.865Z,65.25
2023-04-19T05:16:58.820Z,65.32
2023-04-19T05:17:58.874Z,65.65
2023-04-19T05:18:58.832Z,65.10
2023-04-19T05:19:58.832Z,65.40
2023-04-19T05:20:58.833Z,65.55
2023-04-19T05:21:58.851Z,67.11
2023-04-19T05:22:58.908Z,65.96
2023-04-19T05:23:58.828Z,68.30
2023-04-19T05:24:58.832Z,71.70
2023-04-19T05:25:58.824Z,76.21
2023-04-19T05:26:58.816Z,82.73
2023-04-19T05:27:58.848Z,82.32
2023-04-19T05:28:58.823Z,89.45
2023-04-19T05:29:58.844Z,98.44
2023-04-19T05:30:58.861Z,105.01
2023-04-19T05:31:58.838Z,116.59
2023-04-19T05:32:58.903Z,145.12
2023-04-19T05:33:58.820Z,158.35
2023-04-19T05:34:58.835Z,176.27
2023-04-19T05:35:58.866Z,189.40
2023-04-19T05:36:58.873Z,203.33
2023-04-19T05:37:58.855Z,215.76
2023-04-19T05:38:58.997Z,230.58
2023-04-19T05:39:58.977Z,243.52
2023-04-19T05:40:59.054Z,250.00
2023-04-19T05:41:59.085Z,247.28
2023-04-19T05:42:59.182Z,240.48
2023-04-19T05:43:59.210Z,250.00
2023-04-19T05:44:59.257Z,250.00
2023-04-19T05:45:59.359Z,204.98
2023-04-19T05:46:59.335Z,133.05
2023-04-19T05:47:59.322Z,68.48
2023-04-19T05:48:59.314Z,21.25
2023-04-19T05:49:59.344Z,7.61
2023-04-19T05:50:59.329Z,0.00
2023-04-19T05:51:59.320Z,0.00
2023-04-19T05:52:59.328Z,0.00
2023-04-19T05:53:59.337Z,0.00
2023-04-19T05:54:59.365Z,17.85
2023-04-19T05:55:59.369Z,35.71
2023-04-19T05:56:59.382Z,26.16
2023-04-19T05:57:59.372Z,24.36
2023-04-19T05:58:59.392Z,22.02
2023-04-19T06:00:59.448Z,29.30
2023-04-19T06:01:59.485Z,30.80
2023-04-19T06:02:59.452Z,25.51
2023-04-19T06:03:59.518Z,25.20
2023-04-19T06:05:02.505Z,23.99
2023-04-19T06:06:00.563Z,18.40
2023-04-19T06:06:59.446Z,9.33
2023-04-19T06:08:59.470Z,3.81
2023-04-19T06:09:59.459Z,7.62
2023-04-19T06:11:02.600Z,26.78
2023-04-19T06:12:00.455Z,26.83
2023-04-19T06:12:59.463Z,27.14
2023-04-19T06:13:59.468Z,25.17
2023-04-19T06:14:59.466Z,23.17
2023-04-19T06:15:59.529Z,23.56
2023-04-19T06:16:59.473Z,32.61
2023-04-19T06:17:59.976Z,33.16
2023-04-19T06:18:59.476Z,36.47
2023-04-19T06:19:59.476Z,36.91
2023-04-19T06:20:59.478Z,41.08
2023-04-19T06:21:59.482Z,32.64
2023-04-19T06:22:59.480Z,26.06
2023-04-19T06:23:59.490Z,30.28
2023-04-19T06:24:59.506Z,33.71
2023-04-19T06:25:59.505Z,52.21
2023-04-19T06:26:59.507Z,64.70
2023-04-19T06:27:59.497Z,75.35
2023-04-19T06:28:59.504Z,70.28
2023-04-19T06:29:59.526Z,67.24
2023-04-19T06:30:59.511Z,65.31
2023-04-19T06:31:59.563Z,70.40
2023-04-19T06:32:59.562Z,86.31
2023-04-19T06:33:59.530Z,99.41
2023-04-19T06:34:59.509Z,112.34
2023-04-19T06:35:59.517Z,124.10
2023-04-19T06:36:59.507Z,138.94
2023-04-19T06:37:59.516Z,151.91
2023-04-19T06:38:59.595Z,166.34
2023-04-19T06:39:59.640Z,173.10
2023-04-19T06:40:59.675Z,179.59
2023-04-19T06:41:59.718Z,156.87
2023-04-19T06:42:59.790Z,152.33
2023-04-19T06:43:59.818Z,161.01
2023-04-19T06:44:59.898Z,168.00
2023-04-19T06:45:59.923Z,169.83
2023-04-19T06:46:59.979Z,180.66
2023-04-19T06:48:00.016Z,191.46
2023-04-19T06:49:00.017Z,199.59
2023-04-19T06:50:00.049Z,207.87
2023-04-19T06:51:00.073Z,215.27
2023-04-19T06:52:00.071Z,219.92
2023-04-19T06:53:00.119Z,227.80
2023-04-19T06:54:00.123Z,232.18
2023-04-19T06:55:00.172Z,239.22
2023-04-19T06:56:00.149Z,237.12
2023-04-19T06:57:00.198Z,204.41
2023-04-19T06:58:00.230Z,192.59
2023-04-19T06:59:00.255Z,172.74
2023-04-19T07:00:00.250Z,159.37
2023-04-19T07:01:00.308Z,147.71
2023-04-19T07:02:00.315Z,135.28
2023-04-19T07:03:00.467Z,127.13
2023-04-19T07:04:00.388Z,123.21
2023-04-19T07:05:00.293Z,117.17
2023-04-19T07:06:00.298Z,102.81
2023-04-19T07:07:00.330Z,78.86
2023-04-19T07:08:00.349Z,82.04
2023-04-19T07:09:00.456Z,81.18
2023-04-19T07:10:00.435Z,78.63
2023-04-19T07:11:00.456Z,78.71
2023-04-19T07:12:00.442Z,72.75
2023-04-19T07:13:00.450Z,71.85
2023-04-19T07:14:00.485Z,63.97
2023-04-19T07:15:00.639Z,57.62
2023-04-19T07:16:00.544Z,58.75
2023-04-19T07:17:00.460Z,55.37
2023-04-19T07:18:00.487Z,49.52
2023-04-19T07:19:00.478Z,44.71
2023-04-19T07:20:00.468Z,40.08
2023-04-19T07:21:00.495Z,43.32
2023-04-19T07:22:00.485Z,39.73
2023-04-19T07:23:00.487Z,42.00
2023-04-19T07:24:00.476Z,50.40
2023-04-19T07:25:00.500Z,53.39
2023-04-19T07:26:00.478Z,53.51
2023-04-19T07:27:00.522Z,53.40
2023-04-19T07:28:00.469Z,51.06
2023-04-19T07:29:00.501Z,48.32
2023-04-19T07:30:00.478Z,41.67
2023-04-19T07:31:00.493Z,43.28
2023-04-19T07:32:00.524Z,49.63
2023-04-19T07:33:00.571Z,47.86
2023-04-19T07:34:00.494Z,50.19
2023-04-19T07:35:00.721Z,40.92
2023-04-19T07:36:00.469Z,7.84
2023-04-19T07:37:00.463Z,24.27
2023-04-19T07:38:00.471Z,29.54
2023-04-19T07:39:00.475Z,35.12
2023-04-19T07:40:00.516Z,14.69
2023-04-19T07:41:00.558Z,27.56
2023-04-19T07:42:00.558Z,56.12
2023-04-19T07:43:00.576Z,82.04
2023-04-19T07:44:00.600Z,98.39
2023-04-19T07:45:00.635Z,119.72
2023-04-19T07:46:00.724Z,129.01
2023-04-19T07:47:00.876Z,140.36
2023-04-19T07:48:00.725Z,154.45
2023-04-19T07:49:00.662Z,166.64
2023-04-19T07:50:00.691Z,178.04
2023-04-19T07:51:00.721Z,184.78
2023-04-19T07:52:00.733Z,192.56
2023-04-19T07:53:00.797Z,203.57
2023-04-19T07:54:00.866Z,209.98
2023-04-19T07:55:00.906Z,207.78
2023-04-19T07:56:00.968Z,210.62
2023-04-19T07:57:01.090Z,220.38
2023-04-19T07:58:01.090Z,232.29
2023-04-19T07:59:08.447Z,239.66
2023-04-19T08:00:02.105Z,239.79
2023-04-19T08:01:01.142Z,240.26
2023-04-19T08:02:01.190Z,239.75
2023-04-19T08:03:01.251Z,238.17
2023-04-19T08:04:01.539Z,233.94
2023-04-19T08:05:01.270Z,198.79
2023-04-19T08:06:01.064Z,206.03
2023-04-19T08:07:01.074Z,216.91
2023-04-19T08:08:01.055Z,220.28
2023-04-19T08:09:01.065Z,219.92
2023-04-19T08:10:01.089Z,218.76
2023-04-19T08:11:02.085Z,202.22
2023-04-19T08:12:01.011Z,197.55
2023-04-19T08:13:05.041Z,183.12
2023-04-19T08:15:07.745Z,172.50
2023-04-19T08:16:18.044Z,170.76
2023-04-19T08:18:00.998Z,183.38
2023-04-19T08:19:01.001Z,184.96
2023-04-19T08:20:00.955Z,190.06
2023-04-19T08:21:00.944Z,199.00
2023-04-19T08:22:00.971Z,203.65
2023-04-19T08:23:07.558Z,199.75
2023-04-19T08:24:01.943Z,199.84
2023-04-19T08:25:00.930Z,199.75
2023-04-19T08:26:00.922Z,199.96
2023-04-19T08:27:00.911Z,201.92
2023-04-19T08:28:00.907Z,203.13
2023-04-19T08:29:00.898Z,203.55
2023-04-19T08:30:00.897Z,199.56
2023-04-19T08:31:00.930Z,202.52
2023-04-19T08:32:00.987Z,204.32
2023-04-19T08:33:00.966Z,201.07
2023-04-19T08:34:00.854Z,186.91
2023-04-19T08:35:00.868Z,179.17
2023-04-19T08:36:00.844Z,156.39
2023-04-19T08:37:04.357Z,134.49
2023-04-19T08:38:02.058Z,128.01
2023-04-19T08:39:05.737Z,105.92
2023-04-19T08:40:01.824Z,89.16
2023-04-19T08:41:00.806Z,72.39
2023-04-19T08:42:06.961Z,47.47
2023-04-19T08:43:01.792Z,48.41
2023-04-19T08:44:00.791Z,41.68
2023-04-19T08:46:00.872Z,36.14
2023-04-19T08:47:00.762Z,40.04
2023-04-19T08:48:02.043Z,49.40
2023-04-19T08:49:00.738Z,33.35
2023-04-19T08:50:13.960Z,18.86
2023-04-19T08:51:05.607Z,0.00
2023-04-19T08:52:00.734Z,33.83
2023-04-19T08:53:08.537Z,65.11
2023-04-19T08:54:01.789Z,80.28
2023-04-19T08:55:00.713Z,84.84
2023-04-19T08:56:10.596Z,103.39
2023-04-19T08:57:01.712Z,122.27
2023-04-19T08:58:00.693Z,129.70
2023-04-19T08:59:11.580Z,134.23
2023-04-19T09:00:01.720Z,134.93
2023-04-19T09:01:00.742Z,138.22
2023-04-19T09:02:00.775Z,147.36
2023-04-19T09:03:00.829Z,162.39
2023-04-19T09:04:07.303Z,188.65
2023-04-19T09:05:01.976Z,136.56
2023-04-19T09:06:00.757Z,143.67
2023-04-19T09:07:00.640Z,158.11
2023-04-19T09:08:00.623Z,181.38
2023-04-19T09:09:00.611Z,203.44
2023-04-19T09:10:03.389Z,210.67
2023-04-19T09:11:00.586Z,213.96
2023-04-19T09:12:00.651Z,219.67
2023-04-19T09:13:00.584Z,223.33
2023-04-19T09:14:00.570Z,224.61
2023-04-19T09:15:02.297Z,231.67
2023-04-19T09:16:00.585Z,231.74
2023-04-19T09:17:00.529Z,231.93
2023-04-19T09:18:00.584Z,232.50
2023-04-19T09:19:15.256Z,231.24
2023-04-19T09:20:01.545Z,231.78
2023-04-19T09:21:00.540Z,222.21
2023-04-19T09:22:00.528Z,223.98
2023-04-19T09:23:00.552Z,182.22
2023-04-19T09:24:02.338Z,179.58
2023-04-19T09:27:01.504Z,178.24
2023-04-19T09:28:00.476Z,180.40
2023-04-19T09:29:00.470Z,181.87
2023-04-19T09:30:00.517Z,185.56
2023-04-19T09:31:08.418Z,194.38
2023-04-19T09:32:01.477Z,178.19
2023-04-19T09:33:00.491Z,180.96
2023-04-19T09:34:00.413Z,180.89
2023-04-19T09:35:00.484Z,181.65
2023-04-19T09:36:00.418Z,184.29
2023-04-19T09:37:08.992Z,182.79
2023-04-19T09:38:05.764Z,182.83
2023-04-19T09:39:01.401Z,182.89
2023-04-19T09:40:00.427Z,182.93
2023-04-19T09:41:00.360Z,166.14
2023-04-19T09:42:00.361Z,159.66
2023-04-19T09:43:12.926Z,150.89
2023-04-19T09:44:15.594Z,127.11
2023-04-19T09:45:27.726Z,98.30
2023-04-19T09:46:01.539Z,116.60
2023-04-19T09:47:00.388Z,98.20
2023-04-19T09:48:00.426Z,98.20
2023-04-19T09:49:03.994Z,79.58
2023-04-19T09:50:02.565Z,55.80
2023-04-19T09:51:04.604Z,72.62
2023-04-19T09:52:01.313Z,73.44
2023-04-19T09:53:00.277Z,69.82
2023-04-19T09:54:00.253Z,55.80
2023-04-19T09:55:01.019Z,51.01
2023-04-19T09:56:02.681Z,44.55
2023-04-19T09:57:01.445Z,55.49
2023-04-19T09:58:00.222Z,39.50
2023-04-19T09:59:12.670Z,33.50
2023-04-19T10:00:01.220Z,33.55
2023-04-19T10:01:13.419Z,35.22
2023-04-19T10:02:01.300Z,23.59
2023-04-19T10:03:00.262Z,33.41
2023-04-19T10:04:13.775Z,28.38
2023-04-19T10:05:16.391Z,15.82
2023-04-19T10:06:10.280Z,6.86
2023-04-19T10:08:15.901Z,0.00
2023-04-19T10:09:19.028Z,25.00
2023-04-19T10:10:21.486Z,25.00
2023-04-19T10:11:18.981Z,25.00
2023-04-19T10:12:40.673Z,25.00
2023-04-19T10:13:22.020Z,25.00
2023-04-19T10:14:18.871Z,25.00
2023-04-19T10:15:18.851Z,25.00
2023-04-19T10:16:20.395Z,25.00
2023-04-19T10:17:18.793Z,25.00
2023-04-19T10:18:18.792Z,25.00
2023-04-19T10:19:18.837Z,64.51
2023-04-19T10:20:18.845Z,75.37
2023-04-19T10:21:18.896Z,110.19
2023-04-19T10:22:18.901Z,72.45
2023-04-19T10:23:18.911Z,65.69
2023-04-19T10:24:18.935Z,103.20
2023-04-19T10:25:18.955Z,64.21
2023-04-19T10:26:19.022Z,33.68
2023-04-19T10:27:19.030Z,32.80
2023-04-19T10:28:19.001Z,33.81
2023-04-19T10:29:18.962Z,44.25
2023-04-19T10:30:18.939Z,34.80
2023-04-19T10:31:18.931Z,42.91
2023-04-19T10:32:18.985Z,63.79
2023-04-19T10:33:18.831Z,75.84
2023-04-19T10:34:18.814Z,86.35
2023-04-19T10:35:18.779Z,57.08
2023-04-19T10:36:18.766Z,123.54
2023-04-19T10:37:18.717Z,139.86
2023-04-19T10:38:18.704Z,160.83
2023-04-19T10:39:18.730Z,117.76
2023-04-19T10:40:18.795Z,130.40
2023-04-19T10:41:19.161Z,104.93
2023-04-19T10:42:18.934Z,116.47
2023-04-19T10:43:18.884Z,59.42
2023-04-19T10:44:18.913Z,25.00
2023-04-19T10:45:18.871Z,4.95
2023-04-19T10:46:18.870Z,30.21
2023-04-19T10:47:18.841Z,44.14
2023-04-19T10:48:18.786Z,73.06
2023-04-19T10:49:19.073Z,97.88
2023-04-19T10:50:18.755Z,72.66
2023-04-19T10:51:18.727Z,54.82
2023-04-19T10:52:18.696Z,84.02
2023-04-19T10:53:18.708Z,130.93
2023-04-19T10:54:18.660Z,123.58
2023-04-19T10:55:18.691Z,125.47
2023-04-19T10:56:18.745Z,114.62
2023-04-19T10:57:18.767Z,147.96
2023-04-19T10:58:18.829Z,86.56
2023-04-19T10:59:19.047Z,60.04
2023-04-19T11:00:18.883Z,39.41
2023-04-19T11:01:19.004Z,106.13
2023-04-19T11:02:19.031Z,74.18
2023-04-19T11:03:19.054Z,95.52
2023-04-19T11:04:19.010Z,90.29
2023-04-19T11:05:20.342Z,73.86
2023-04-19T11:06:19.047Z,110.71
2023-04-19T11:07:19.060Z,119.46
2023-04-19T11:08:19.096Z,138.98
2023-04-19T11:09:19.155Z,159.41
2023-04-19T11:10:19.173Z,110.95
2023-04-19T11:11:19.221Z,118.45
2023-04-19T11:12:19.272Z,123.47
2023-04-19T11:13:19.277Z,124.77
2023-04-19T11:14:19.322Z,91.08
2023-04-19T11:15:19.344Z,41.39
2023-04-19T11:16:19.808Z,18.45
2023-04-19T11:17:19.303Z,44.25
2023-04-19T11:18:19.328Z,80.47
2023-04-19T11:19:19.453Z,28.68
2023-04-19T11:20:19.253Z,61.80
2023-04-19T11:21:19.215Z,86.04
2023-04-19T11:22:19.193Z,22.20
2023-04-19T11:23:19.193Z,0.00
2023-04-19T11:24:19.231Z,0.00
2023-04-19T11:25:19.336Z,42.80
2023-04-19T11:26:19.181Z,53.07
2023-04-19T11:27:19.235Z,36.80
2023-04-19T11:28:19.155Z,53.25
2023-04-19T11:29:19.162Z,0.00
2023-04-19T11:30:19.175Z,9.33
2023-04-19T11:31:19.250Z,53.44
2023-04-19T11:32:19.178Z,55.45
2023-04-19T11:33:19.142Z,63.35
2023-04-19T11:34:19.273Z,82.85
2023-04-19T11:35:19.088Z,145.88
2023-04-19T11:36:19.046Z,60.02
2023-04-19T11:37:19.011Z,84.06
2023-04-19T11:38:18.970Z,128.91
2023-04-19T11:39:18.961Z,198.43
2023-04-19T11:40:18.903Z,302.15
2023-04-19T11:41:18.879Z,252.19
2023-04-19T11:42:18.844Z,249.66
2023-04-19T11:43:18.812Z,250.00
2023-04-19T11:44:18.990Z,247.81
2023-04-19T11:45:28.751Z,250.00
2023-04-19T11:46:19.782Z,250.28
2023-04-19T11:47:18.676Z,254.63
2023-04-19T11:48:18.631Z,263.47
2023-04-19T11:49:18.592Z,277.00
2023-04-19T11:50:18.551Z,308.41
2023-04-19T11:51:18.512Z,304.93
2023-04-19T11:52:18.496Z,305.09
2023-04-19T11:53:18.446Z,306.88
2023-04-19T11:54:18.650Z,311.41
2023-04-19T11:55:18.411Z,318.46
2023-04-19T11:56:18.357Z,330.35
2023-04-19T11:57:18.326Z,313.97
2023-04-19T11:58:18.292Z,296.80
2023-04-19T11:59:18.253Z,304.74
2023-04-19T12:00:18.220Z,305.31
2023-04-19T12:01:18.187Z,309.13
2023-04-19T12:02:18.364Z,319.02
2023-04-19T12:03:18.424Z,333.27
2023-04-19T12:04:18.499Z,352.27
2023-04-19T12:05:18.364Z,338.92
2023-04-19T12:06:18.002Z,325.00
2023-04-19T12:07:17.977Z,310.58
2023-04-19T12:08:17.936Z,298.62
2023-04-19T12:09:17.908Z,287.14
2023-04-19T12:10:17.869Z,277.71
2023-04-19T12:11:17.836Z,267.12
2023-04-19T12:12:17.805Z,260.03
2023-04-19T12:13:17.830Z,250.79
2023-04-19T12:14:17.901Z,249.58
2023-04-19T12:15:17.774Z,248.74
2023-04-19T12:16:17.931Z,249.78
2023-04-19T12:17:17.732Z,250.00
2023-04-19T12:18:17.748Z,248.76
2023-04-19T12:19:18.096Z,249.21
2023-04-19T12:20:17.677Z,248.84
2023-04-19T12:21:17.648Z,249.16
2023-04-19T12:22:17.647Z,248.73
2023-04-19T12:23:17.644Z,247.88
2023-04-19T12:24:17.637Z,248.09
2023-04-19T12:25:17.626Z,248.40
2023-04-19T12:26:17.580Z,247.51
2023-04-19T12:27:17.581Z,247.46
2023-04-19T12:28:17.551Z,247.17
2023-04-19T12:29:17.720Z,248.47
2023-04-19T12:30:17.518Z,249.42
2023-04-19T12:31:17.521Z,247.86
2023-04-19T12:32:17.637Z,244.69
2023-04-19T12:33:17.480Z,244.64
2023-04-19T12:34:17.543Z,243.41
2023-04-19T12:35:17.439Z,244.21
2023-04-19T12:36:17.436Z,246.36
2023-04-19T12:37:17.337Z,246.57
2023-04-19T12:38:17.293Z,246.75
2023-04-19T12:39:17.438Z,248.63
2023-04-19T12:40:17.224Z,252.53
2023-04-19T12:41:17.176Z,260.17
2023-04-19T12:42:17.137Z,272.35
2023-04-19T12:43:17.100Z,267.71
2023-04-19T12:44:17.081Z,261.78
2023-04-19T12:45:17.029Z,256.35
2023-04-19T12:46:17.034Z,251.54
2023-04-19T12:47:16.954Z,250.08
2023-04-19T12:48:16.930Z,250.00
2023-04-19T12:49:17.318Z,249.88
2023-04-19T12:50:16.909Z,249.96
2023-04-19T12:51:16.870Z,250.00
2023-04-19T12:52:16.855Z,249.87
2023-04-19T12:53:16.845Z,249.98